createdAt,value
2023-01-08T00:00:13.179Z,0
2023-01-08T00:01:13.157Z,0
2023-01-08T00:02:13.130Z,0
2023-01-08T00:03:13.289Z,0
2023-01-08T00:04:13.195Z,0
2023-01-08T00:05:13.133Z,0
2023-01-08T00:06:13.135Z,0
2023-01-08T00:07:13.132Z,0
2023-01-08T00:08:13.250Z,0
2023-01-08T00:09:13.124Z,0
2023-01-08T00:10:13.143Z,0
2023-01-08T00:11:13.142Z,0
2023-01-08T00:12:13.151Z,0
2023-01-08T00:13:13.149Z,0
2023-01-08T00:14:13.159Z,0
2023-01-08T00:15:13.138Z,0
2023-01-08T00:16:13.195Z,0
2023-01-08T00:17:13.152Z,0
2023-01-08T00:18:13.172Z,0
2023-01-08T00:19:13.153Z,0
2023-01-08T00:20:13.138Z,0
2023-01-08T00:21:13.178Z,0
2023-01-08T00:22:13.149Z,0
2023-01-08T00:23:13.185Z,0
2023-01-08T00:24:13.259Z,0
2023-01-08T00:25:13.152Z,0
2023-01-08T00:26:13.156Z,0
2023-01-08T00:27:13.151Z,0
2023-01-08T00:28:13.168Z,0
2023-01-08T00:29:13.153Z,0
2023-01-08T00:30:13.192Z,0
2023-01-08T00:31:13.196Z,0
2023-01-08T00:32:13.153Z,0
2023-01-08T00:33:13.183Z,0
2023-01-08T00:34:13.168Z,0
2023-01-08T00:35:13.165Z,0
2023-01-08T00:36:13.168Z,0
2023-01-08T00:37:13.170Z,0
2023-01-08T00:38:13.167Z,0
2023-01-08T00:39:13.175Z,0
2023-01-08T00:40:13.189Z,0
2023-01-08T00:41:13.219Z,0
2023-01-08T00:42:13.181Z,0
2023-01-08T00:43:13.162Z,0
2023-01-08T00:44:13.164Z,0
2023-01-08T00:45:13.168Z,0
2023-01-08T00:46:13.244Z,0
2023-01-08T00:47:13.204Z,0
2023-01-08T00:48:13.170Z,0
2023-01-08T00:49:13.192Z,0
2023-01-08T00:50:13.183Z,0
2023-01-08T00:51:13.175Z,0
2023-01-08T00:52:13.173Z,0
2023-01-08T00:53:13.173Z,0
2023-01-08T00:54:13.196Z,0
2023-01-08T00:55:13.183Z,0
2023-01-08T00:56:13.286Z,0
2023-01-08T00:57:13.179Z,0
2023-01-08T00:58:13.188Z,0
2023-01-08T00:59:13.171Z,0
2023-01-08T01:00:13.197Z,0
2023-01-08T01:01:13.380Z,0
2023-01-08T01:02:13.279Z,0
2023-01-08T01:03:13.179Z,0
2023-01-08T01:04:13.223Z,0
2023-01-08T01:05:13.188Z,0
2023-01-08T01:06:13.193Z,0
2023-01-08T01:07:13.193Z,0
2023-01-08T01:08:13.189Z,0
2023-01-08T01:09:13.195Z,0
2023-01-08T01:10:13.210Z,0
2023-01-08T01:11:13.202Z,0
2023-01-08T01:12:13.215Z,0
2023-01-08T01:13:13.207Z,0
2023-01-08T01:14:13.201Z,0
2023-01-08T01:15:13.201Z,0
2023-01-08T01:16:13.254Z,0
2023-01-08T01:17:13.214Z,0
2023-01-08T01:18:13.216Z,0
2023-01-08T01:19:13.211Z,0
2023-01-08T01:20:13.205Z,0
2023-01-08T01:21:13.207Z,0
2023-01-08T01:22:13.249Z,0
2023-01-08T01:23:13.216Z,0
2023-01-08T01:24:13.205Z,0
2023-01-08T01:25:13.215Z,0
2023-01-08T01:26:13.192Z,0
2023-01-08T01:27:13.256Z,0
2023-01-08T01:28:13.233Z,0
2023-01-08T01:29:13.212Z,0
2023-01-08T01:30:13.210Z,0
2023-01-08T01:31:13.206Z,0
2023-01-08T01:32:13.258Z,0
2023-01-08T01:33:13.206Z,0
2023-01-08T01:34:13.201Z,0
2023-01-08T01:35:13.231Z,0
2023-01-08T01:36:13.211Z,0
2023-01-08T01:37:13.230Z,0
2023-01-08T01:38:13.212Z,0
2023-01-08T01:39:13.213Z,0
2023-01-08T01:40:13.203Z,0
2023-01-08T01:41:13.221Z,0
2023-01-08T01:42:13.223Z,0
2023-01-08T01:43:13.284Z,0
2023-01-08T01:44:13.332Z,0
2023-01-08T01:45:13.214Z,0
2023-01-08T01:46:13.265Z,0
2023-01-08T01:47:13.220Z,0
2023-01-08T01:48:13.283Z,0
2023-01-08T01:49:13.231Z,0
2023-01-08T01:50:13.217Z,0
2023-01-08T01:51:13.223Z,0
2023-01-08T01:52:13.224Z,0
2023-01-08T01:53:13.228Z,0
2023-01-08T01:54:13.225Z,0
2023-01-08T01:55:13.229Z,0
2023-01-08T01:56:13.217Z,0
2023-01-08T01:57:13.231Z,0
2023-01-08T01:58:13.232Z,0
2023-01-08T01:59:13.219Z,0
2023-01-08T02:00:13.349Z,0
2023-01-08T02:01:13.422Z,0
2023-01-08T02:02:13.342Z,0
2023-01-08T02:03:13.227Z,0
2023-01-08T02:04:13.363Z,0
2023-01-08T02:05:13.222Z,0
2023-01-08T02:06:13.220Z,0
2023-01-08T02:07:13.234Z,0
2023-01-08T02:08:13.232Z,0
2023-01-08T02:09:13.222Z,0
2023-01-08T02:10:13.224Z,0
2023-01-08T02:11:13.216Z,0
2023-01-08T02:12:13.235Z,0
2023-01-08T02:13:13.219Z,0
2023-01-08T02:14:13.287Z,0
2023-01-08T02:15:13.222Z,0
2023-01-08T02:16:13.374Z,0
2023-01-08T02:17:13.226Z,0
2023-01-08T02:18:13.221Z,0
2023-01-08T02:19:13.223Z,0
2023-01-08T02:20:13.240Z,0
2023-01-08T02:21:13.240Z,0
2023-01-08T02:22:13.225Z,0
2023-01-08T02:23:13.305Z,0
2023-01-08T02:24:13.229Z,0
2023-01-08T02:25:13.308Z,0
2023-01-08T02:26:13.237Z,0
2023-01-08T02:27:13.234Z,0
2023-01-08T02:28:13.226Z,0
2023-01-08T02:29:13.222Z,0
2023-01-08T02:30:13.234Z,0
2023-01-08T02:31:13.383Z,0
2023-01-08T02:32:13.451Z,0
2023-01-08T02:33:13.239Z,0
2023-01-08T02:34:13.224Z,0
2023-01-08T02:35:13.226Z,0
2023-01-08T02:36:13.229Z,0
2023-01-08T02:37:13.269Z,0
2023-01-08T02:38:13.227Z,0
2023-01-08T02:39:13.222Z,0
2023-01-08T02:40:13.298Z,0
2023-01-08T02:41:13.237Z,0
2023-01-08T02:42:13.239Z,0
2023-01-08T02:43:13.237Z,0
2023-01-08T02:44:13.228Z,0
2023-01-08T02:45:13.222Z,0
2023-01-08T02:46:13.292Z,0
2023-01-08T02:47:13.226Z,0
2023-01-08T02:48:13.348Z,0
2023-01-08T02:49:13.240Z,0
2023-01-08T02:50:13.231Z,0
2023-01-08T02:51:13.220Z,0
2023-01-08T02:52:13.249Z,0
2023-01-08T02:53:13.226Z,0
2023-01-08T02:54:13.235Z,0
2023-01-08T02:55:13.227Z,0
2023-01-08T02:56:13.229Z,0
2023-01-08T02:57:13.284Z,0
2023-01-08T02:58:13.253Z,0
2023-01-08T02:59:13.247Z,0
2023-01-08T03:00:13.230Z,0
2023-01-08T03:01:13.431Z,0
2023-01-08T03:02:13.418Z,0
2023-01-08T03:03:13.271Z,0
2023-01-08T03:04:13.443Z,0
2023-01-08T03:05:13.247Z,0
2023-01-08T03:06:13.234Z,0
2023-01-08T03:07:13.238Z,0
2023-01-08T03:08:13.226Z,0
2023-01-08T03:09:13.236Z,3.1
2023-01-08T03:10:13.237Z,3.6
2023-01-08T03:11:13.242Z,3.5
2023-01-08T03:12:13.236Z,4.800000000000001
2023-01-08T03:13:13.245Z,5
2023-01-08T03:14:13.256Z,5.2
2023-01-08T03:15:13.234Z,4.800000000000001
2023-01-08T03:16:13.317Z,6
2023-01-08T03:17:13.259Z,4.4
2023-01-08T03:18:13.254Z,3.7
2023-01-08T03:19:13.248Z,4.6000000000000005
2023-01-08T03:20:13.371Z,3.1
2023-01-08T03:21:13.248Z,3.6
2023-01-08T03:22:13.242Z,4.800000000000001
2023-01-08T03:23:13.264Z,1.9000000000000001
2023-01-08T03:24:13.255Z,3.7
2023-01-08T03:25:13.285Z,2.3000000000000003
2023-01-08T03:26:13.262Z,0
2023-01-08T03:27:13.276Z,0
2023-01-08T03:28:13.265Z,0
2023-01-08T03:29:13.271Z,0
2023-01-08T03:30:13.268Z,0
2023-01-08T03:31:13.312Z,0
2023-01-08T03:32:13.282Z,0
2023-01-08T03:33:13.336Z,0
2023-01-08T03:34:13.278Z,0
2023-01-08T03:35:13.294Z,0
2023-01-08T03:36:13.311Z,0
2023-01-08T03:37:13.284Z,0
2023-01-08T03:38:13.325Z,0
2023-01-08T03:39:13.287Z,0
2023-01-08T03:40:13.299Z,0
2023-01-08T03:41:13.320Z,0
2023-01-08T03:42:13.310Z,0
2023-01-08T03:43:13.308Z,0
2023-01-08T03:44:13.310Z,0
2023-01-08T03:45:13.296Z,0
2023-01-08T03:46:13.312Z,0
2023-01-08T03:47:13.298Z,0
2023-01-08T03:48:13.308Z,0
2023-01-08T03:49:13.295Z,0
2023-01-08T03:50:13.316Z,0
2023-01-08T03:51:13.299Z,0
2023-01-08T03:52:13.424Z,0
2023-01-08T03:53:13.301Z,0
2023-01-08T03:54:13.312Z,0
2023-01-08T03:55:13.331Z,0
2023-01-08T03:56:13.311Z,0
2023-01-08T03:57:13.317Z,0
2023-01-08T03:58:13.313Z,0
2023-01-08T03:59:13.315Z,0
2023-01-08T04:00:13.330Z,0
2023-01-08T04:01:13.490Z,0
2023-01-08T04:02:13.500Z,0
2023-01-08T04:03:13.341Z,0
2023-01-08T04:04:13.355Z,0
2023-01-08T04:05:13.339Z,0
2023-01-08T04:06:13.335Z,0
2023-01-08T04:07:13.330Z,0
2023-01-08T04:08:13.468Z,0
2023-01-08T04:09:13.334Z,1.8
2023-01-08T04:10:13.343Z,2.4000000000000004
2023-01-08T04:11:13.346Z,2.2
2023-01-08T04:12:13.348Z,3.3000000000000003
2023-01-08T04:13:13.354Z,0.30000000000000004
2023-01-08T04:14:13.337Z,0.7000000000000001
2023-01-08T04:15:13.339Z,0
2023-01-08T04:16:13.403Z,0
2023-01-08T04:17:13.350Z,0
2023-01-08T04:18:13.348Z,0
2023-01-08T04:19:13.449Z,0
2023-01-08T04:20:13.350Z,0
2023-01-08T04:21:13.361Z,0
2023-01-08T04:22:13.364Z,0
2023-01-08T04:23:13.363Z,0
2023-01-08T04:24:13.379Z,0
2023-01-08T04:25:13.355Z,0
2023-01-08T04:26:13.363Z,0
2023-01-08T04:27:13.354Z,0
2023-01-08T04:28:13.359Z,0
2023-01-08T04:29:13.365Z,0
2023-01-08T04:30:13.369Z,0
2023-01-08T04:31:13.412Z,0
2023-01-08T04:32:13.394Z,0
2023-01-08T04:33:13.377Z,0
2023-01-08T04:34:13.379Z,0
2023-01-08T04:35:13.423Z,0
2023-01-08T04:36:13.374Z,0
2023-01-08T04:37:13.381Z,0
2023-01-08T04:38:13.365Z,0
2023-01-08T04:39:13.384Z,0
2023-01-08T04:40:13.487Z,0
2023-01-08T04:41:13.375Z,0
2023-01-08T04:42:13.380Z,0
2023-01-08T04:43:13.388Z,0
2023-01-08T04:44:13.379Z,0
2023-01-08T04:45:13.385Z,0
2023-01-08T04:46:13.408Z,0
2023-01-08T04:47:13.383Z,0
2023-01-08T04:48:13.412Z,0
2023-01-08T04:49:13.391Z,0
2023-01-08T04:50:13.406Z,0
2023-01-08T04:51:13.388Z,0
2023-01-08T04:52:13.389Z,0
2023-01-08T04:53:13.375Z,0
2023-01-08T04:54:13.402Z,0
2023-01-08T04:55:13.391Z,0
2023-01-08T04:56:13.511Z,0
2023-01-08T04:57:13.461Z,0
2023-01-08T04:58:13.404Z,0
2023-01-08T04:59:13.401Z,0
2023-01-08T05:00:13.392Z,0
2023-01-08T05:01:13.511Z,0
2023-01-08T05:02:13.626Z,0
2023-01-08T05:03:13.472Z,0
2023-01-08T05:04:13.395Z,0
2023-01-08T05:05:13.398Z,0
2023-01-08T05:06:13.407Z,0
2023-01-08T05:07:13.403Z,0
2023-01-08T05:08:13.401Z,0
2023-01-08T05:09:13.402Z,0
2023-01-08T05:10:13.427Z,0
2023-01-08T05:11:13.461Z,0
2023-01-08T05:12:13.533Z,0
2023-01-08T05:13:13.416Z,0
2023-01-08T05:14:13.411Z,0
2023-01-08T05:15:13.408Z,0
2023-01-08T05:16:13.456Z,0
2023-01-08T05:17:13.427Z,0
2023-01-08T05:18:13.438Z,0
2023-01-08T05:19:13.430Z,0
2023-01-08T05:20:13.409Z,0
2023-01-08T05:21:13.425Z,0
2023-01-08T05:22:13.425Z,0
2023-01-08T05:23:13.419Z,0
2023-01-08T05:24:13.428Z,0
2023-01-08T05:25:13.421Z,0
2023-01-08T05:26:13.416Z,0
2023-01-08T05:27:13.430Z,0
2023-01-08T05:28:13.458Z,0
2023-01-08T05:29:13.434Z,0
2023-01-08T05:30:13.436Z,0
2023-01-08T05:31:13.481Z,0
2023-01-08T05:32:13.431Z,0
2023-01-08T05:33:13.435Z,0
2023-01-08T05:34:13.435Z,0
2023-01-08T05:35:13.441Z,0
2023-01-08T05:36:13.485Z,0
2023-01-08T05:37:13.446Z,0
2023-01-08T05:38:13.448Z,0
2023-01-08T05:39:13.452Z,0
2023-01-08T05:40:13.442Z,0
2023-01-08T05:41:13.448Z,0
2023-01-08T05:42:13.447Z,0
2023-01-08T05:43:13.435Z,0
2023-01-08T05:44:13.554Z,0
2023-01-08T05:45:13.458Z,0
2023-01-08T05:46:13.538Z,0
2023-01-08T05:47:13.452Z,0
2023-01-08T05:48:13.478Z,0
2023-01-08T05:49:14.655Z,0
2023-01-08T05:50:13.441Z,0
2023-01-08T05:51:13.517Z,0
2023-01-08T05:52:13.452Z,0
2023-01-08T05:53:13.450Z,0
2023-01-08T05:54:13.469Z,0
2023-01-08T05:55:13.453Z,0
2023-01-08T05:56:13.466Z,0
2023-01-08T05:57:13.444Z,0
2023-01-08T05:58:13.457Z,0
2023-01-08T05:59:13.463Z,0
2023-01-08T06:00:13.582Z,0
2023-01-08T06:01:13.475Z,0
2023-01-08T06:02:13.455Z,0
2023-01-08T06:03:13.540Z,0
2023-01-08T06:04:13.571Z,0
2023-01-08T06:05:13.456Z,0
2023-01-08T06:06:13.461Z,0
2023-01-08T06:07:13.452Z,0
2023-01-08T06:08:13.460Z,0
2023-01-08T06:09:13.461Z,0
2023-01-08T06:10:13.467Z,0
2023-01-08T06:11:13.468Z,0
2023-01-08T06:12:13.458Z,0
2023-01-08T06:13:13.481Z,0
2023-01-08T06:14:13.466Z,0
2023-01-08T06:15:13.485Z,0
2023-01-08T06:16:13.605Z,0
2023-01-08T06:17:13.456Z,0
2023-01-08T06:18:13.469Z,0
2023-01-08T06:19:13.487Z,0
2023-01-08T06:20:13.478Z,0
2023-01-08T06:21:13.457Z,0
2023-01-08T06:22:13.475Z,0
2023-01-08T06:23:13.475Z,0
2023-01-08T06:24:13.482Z,0
2023-01-08T06:25:13.480Z,0
2023-01-08T06:26:13.485Z,0
2023-01-08T06:27:13.471Z,0
2023-01-08T06:28:13.461Z,0
2023-01-08T06:29:13.477Z,0
2023-01-08T06:30:13.471Z,0
2023-01-08T06:31:13.558Z,0
2023-01-08T06:32:13.601Z,0
2023-01-08T06:33:13.506Z,0
2023-01-08T06:34:13.471Z,0
2023-01-08T06:35:13.467Z,0
2023-01-08T06:36:13.467Z,0
2023-01-08T06:37:13.463Z,0
2023-01-08T06:38:13.480Z,0
2023-01-08T06:39:13.477Z,0
2023-01-08T06:40:13.467Z,0
2023-01-08T06:41:13.474Z,0
2023-01-08T06:42:13.492Z,0
2023-01-08T06:43:13.492Z,0
2023-01-08T06:44:13.471Z,0
2023-01-08T06:45:13.465Z,0
2023-01-08T06:46:13.494Z,0
2023-01-08T06:47:13.482Z,0
2023-01-08T06:48:13.577Z,0
2023-01-08T06:49:13.478Z,0
2023-01-08T06:50:13.470Z,0
2023-01-08T06:51:13.460Z,0
2023-01-08T06:52:13.469Z,0
2023-01-08T06:53:13.477Z,0
2023-01-08T06:54:13.763Z,0
2023-01-08T06:55:13.506Z,0
2023-01-08T06:56:13.492Z,0
2023-01-08T06:57:13.484Z,0
2023-01-08T06:58:13.521Z,0
2023-01-08T06:59:13.475Z,0
2023-01-08T07:00:13.491Z,0
2023-01-08T07:01:13.584Z,0
2023-01-08T07:02:13.592Z,0
2023-01-08T07:03:13.523Z,0
2023-01-08T07:04:13.523Z,0
2023-01-08T07:05:13.489Z,0
2023-01-08T07:06:13.512Z,0
2023-01-08T07:07:13.544Z,0
2023-01-08T07:08:13.500Z,0
2023-01-08T07:09:13.485Z,0
2023-01-08T07:10:13.498Z,0
2023-01-08T07:11:13.520Z,0
2023-01-08T07:12:13.510Z,0
2023-01-08T07:13:13.530Z,0
2023-01-08T07:14:13.521Z,0
2023-01-08T07:15:13.539Z,0
2023-01-08T07:16:13.529Z,0
2023-01-08T07:17:13.519Z,0
2023-01-08T07:18:13.527Z,0
2023-01-08T07:19:13.526Z,0
2023-01-08T07:20:13.633Z,0
2023-01-08T07:21:13.523Z,0
2023-01-08T07:22:13.525Z,0
2023-01-08T07:23:13.529Z,0
2023-01-08T07:24:13.538Z,0
2023-01-08T07:25:13.535Z,0
2023-01-08T07:26:13.537Z,0
2023-01-08T07:27:13.537Z,0
2023-01-08T07:28:13.550Z,0
2023-01-08T07:29:13.538Z,0
2023-01-08T07:30:24.728Z,0
2023-01-08T07:31:13.615Z,0
2023-01-08T07:32:13.534Z,0
2023-01-08T07:33:13.578Z,0
2023-01-08T07:34:15.219Z,0
2023-01-08T07:35:13.550Z,0
2023-01-08T07:36:13.656Z,0
2023-01-08T07:37:13.529Z,0
2023-01-08T07:38:13.579Z,0
2023-01-08T07:39:13.546Z,0
2023-01-08T07:40:13.609Z,0
2023-01-08T07:41:13.542Z,0
2023-01-08T07:42:13.551Z,0
2023-01-08T07:43:13.555Z,0
2023-01-08T07:44:13.617Z,0
2023-01-08T07:45:13.583Z,0
2023-01-08T07:46:13.595Z,0
2023-01-08T07:47:13.550Z,0
2023-01-08T07:48:13.553Z,0
2023-01-08T07:49:13.553Z,0
2023-01-08T07:50:13.568Z,0
2023-01-08T07:51:13.549Z,0
2023-01-08T07:52:13.694Z,0
2023-01-08T07:53:13.585Z,0
2023-01-08T07:54:13.583Z,0
2023-01-08T07:55:13.563Z,0
2023-01-08T07:56:13.588Z,0
2023-01-08T07:57:13.568Z,0
2023-01-08T07:58:13.575Z,5.6000000000000005
2023-01-08T07:59:13.572Z,6.2
2023-01-08T08:00:13.568Z,3.3000000000000003
2023-01-08T08:01:13.612Z,4.800000000000001
2023-01-08T08:02:13.641Z,1.9000000000000001
2023-01-08T08:03:13.670Z,0
2023-01-08T08:04:13.561Z,0
2023-01-08T08:05:13.578Z,0
2023-01-08T08:06:13.564Z,6.4
2023-01-08T08:07:13.577Z,2.7
2023-01-08T08:08:13.599Z,0
2023-01-08T08:09:13.576Z,0
2023-01-08T08:10:13.593Z,0
2023-01-08T08:11:13.581Z,0
2023-01-08T08:12:13.600Z,0
2023-01-08T08:13:13.605Z,0
2023-01-08T08:14:13.581Z,0
2023-01-08T08:15:13.635Z,0
2023-01-08T08:16:13.749Z,0
2023-01-08T08:17:13.603Z,0
2023-01-08T08:18:13.622Z,0
2023-01-08T08:19:13.605Z,0
2023-01-08T08:20:13.673Z,0
2023-01-08T08:21:13.616Z,0
2023-01-08T08:22:13.664Z,0
2023-01-08T08:23:13.604Z,0
2023-01-08T08:24:13.713Z,0
2023-01-08T08:25:13.599Z,0
2023-01-08T08:26:13.634Z,0
2023-01-08T08:27:13.610Z,0
2023-01-08T08:28:13.618Z,0
2023-01-08T08:29:13.631Z,0
2023-01-08T08:30:13.624Z,0
2023-01-08T08:31:13.656Z,0
2023-01-08T08:32:13.606Z,0
2023-01-08T08:33:13.635Z,0
2023-01-08T08:34:13.643Z,0
2023-01-08T08:35:13.621Z,0
2023-01-08T08:36:13.630Z,0
2023-01-08T08:37:13.646Z,0
2023-01-08T08:38:13.653Z,0
2023-01-08T08:39:13.630Z,0
2023-01-08T08:40:13.737Z,0
2023-01-08T08:41:13.645Z,0
2023-01-08T08:42:13.639Z,0
2023-01-08T08:43:13.636Z,0
2023-01-08T08:44:13.644Z,0
2023-01-08T08:45:13.640Z,0
2023-01-08T08:46:13.680Z,0
2023-01-08T08:47:13.642Z,0
2023-01-08T08:48:13.651Z,0
2023-01-08T08:49:13.644Z,0
2023-01-08T08:50:13.667Z,0
2023-01-08T08:51:13.653Z,0
2023-01-08T08:52:13.654Z,0
2023-01-08T08:53:13.654Z,0
2023-01-08T08:54:13.642Z,0
2023-01-08T08:55:13.653Z,0
2023-01-08T08:56:13.785Z,0
2023-01-08T08:57:13.662Z,0
2023-01-08T08:58:13.657Z,0
2023-01-08T08:59:13.652Z,0
2023-01-08T09:00:13.710Z,0
2023-01-08T09:01:13.682Z,0
2023-01-08T09:02:13.812Z,0
2023-01-08T09:03:13.721Z,0
2023-01-08T09:04:13.665Z,0
2023-01-08T09:05:13.709Z,0
2023-01-08T09:06:13.691Z,0
2023-01-08T09:07:13.672Z,0
2023-01-08T09:08:13.669Z,0
2023-01-08T09:09:13.692Z,0
2023-01-08T09:10:13.689Z,0
2023-01-08T09:11:14.566Z,0
2023-01-08T09:12:13.788Z,0
2023-01-08T09:13:13.686Z,0
2023-01-08T09:14:13.678Z,0
2023-01-08T09:15:13.683Z,0
2023-01-08T09:16:14.292Z,0
2023-01-08T09:17:13.689Z,0
2023-01-08T09:18:15.863Z,0
2023-01-08T09:19:13.693Z,0
2023-01-08T09:20:13.695Z,0
2023-01-08T09:21:13.673Z,0
2023-01-08T09:22:13.702Z,0
2023-01-08T09:23:13.692Z,0
2023-01-08T09:24:13.688Z,0
2023-01-08T09:25:13.694Z,0
2023-01-08T09:26:13.717Z,0
2023-01-08T09:27:13.719Z,0
2023-01-08T09:28:13.847Z,0
2023-01-08T09:29:13.701Z,0
2023-01-08T09:30:13.700Z,0
2023-01-08T09:31:13.749Z,0
2023-01-08T09:32:13.708Z,0
2023-01-08T09:33:13.711Z,0
2023-01-08T09:34:13.705Z,0
2023-01-08T09:35:13.714Z,0
2023-01-08T09:36:13.701Z,0
2023-01-08T09:37:13.715Z,0
2023-01-08T09:38:13.714Z,0
2023-01-08T09:39:13.723Z,0
2023-01-08T09:40:13.727Z,0
2023-01-08T09:41:13.718Z,0
2023-01-08T09:42:13.723Z,0
2023-01-08T09:43:13.726Z,0
2023-01-08T09:44:13.847Z,0
2023-01-08T09:45:13.724Z,0
2023-01-08T09:46:13.786Z,0
2023-01-08T09:47:13.713Z,0
2023-01-08T09:48:13.725Z,0
2023-01-08T09:49:13.734Z,0
2023-01-08T09:50:13.728Z,0
2023-01-08T09:51:13.739Z,0
2023-01-08T09:52:13.733Z,0
2023-01-08T09:53:13.736Z,0
2023-01-08T09:54:13.725Z,0
2023-01-08T09:55:13.721Z,0
2023-01-08T09:56:13.734Z,0
2023-01-08T09:57:13.721Z,0
2023-01-08T09:58:13.753Z,0
2023-01-08T09:59:13.730Z,0
2023-01-08T10:00:13.854Z,0
2023-01-08T10:01:13.881Z,0
2023-01-08T10:02:13.846Z,0
2023-01-08T10:03:13.729Z,0
2023-01-08T10:04:13.735Z,0
2023-01-08T10:05:13.749Z,0
2023-01-08T10:06:13.742Z,0
2023-01-08T10:07:13.751Z,0
2023-01-08T10:08:13.729Z,0
2023-01-08T10:09:13.748Z,0
2023-01-08T10:10:13.762Z,0
2023-01-08T10:11:13.745Z,0
2023-01-08T10:12:13.748Z,0
2023-01-08T10:13:13.738Z,0
2023-01-08T10:14:13.740Z,0
2023-01-08T10:15:13.746Z,0
2023-01-08T10:16:13.831Z,0
2023-01-08T10:17:13.772Z,0
2023-01-08T10:18:13.765Z,0
2023-01-08T10:19:13.741Z,0
2023-01-08T10:20:13.770Z,0
2023-01-08T10:21:13.748Z,0
2023-01-08T10:22:13.749Z,0
2023-01-08T10:23:13.760Z,0
2023-01-08T10:24:13.745Z,0
2023-01-08T10:25:13.755Z,0
2023-01-08T10:26:13.767Z,0
2023-01-08T10:27:13.755Z,0
2023-01-08T10:28:13.761Z,0
2023-01-08T10:29:13.761Z,0
2023-01-08T10:30:13.759Z,0
2023-01-08T10:31:13.775Z,0
2023-01-08T10:32:13.867Z,0
2023-01-08T10:33:13.755Z,0
2023-01-08T10:34:13.761Z,0
2023-01-08T10:35:13.750Z,0
2023-01-08T10:36:13.765Z,0
2023-01-08T10:37:13.786Z,0
2023-01-08T10:38:13.754Z,0
2023-01-08T10:39:13.763Z,0
2023-01-08T10:40:13.768Z,0
2023-01-08T10:41:13.765Z,0
2023-01-08T10:42:13.766Z,0
2023-01-08T10:43:13.763Z,0
2023-01-08T10:44:13.760Z,0
2023-01-08T10:45:13.761Z,0
2023-01-08T10:46:13.765Z,0
2023-01-08T10:47:13.765Z,0
2023-01-08T10:48:13.793Z,0
2023-01-08T10:49:13.759Z,0
2023-01-08T10:50:13.764Z,0
2023-01-08T10:51:13.772Z,0
2023-01-08T10:52:13.771Z,0
2023-01-08T10:53:13.767Z,0
2023-01-08T10:54:13.784Z,0
2023-01-08T10:55:13.771Z,0
2023-01-08T10:56:13.769Z,0
2023-01-08T10:57:13.772Z,0
2023-01-08T10:58:13.782Z,0
2023-01-08T10:59:13.770Z,0
2023-01-08T11:00:13.780Z,0
2023-01-08T11:01:13.885Z,0
2023-01-08T11:02:13.839Z,0
2023-01-08T11:03:13.764Z,0
2023-01-08T11:04:13.804Z,0
2023-01-08T11:05:13.796Z,0
2023-01-08T11:06:13.783Z,0
2023-01-08T11:07:13.777Z,0
2023-01-08T11:08:13.788Z,0
2023-01-08T11:09:13.774Z,0
2023-01-08T11:10:13.784Z,0
2023-01-08T11:11:13.771Z,0
2023-01-08T11:12:13.794Z,0
2023-01-08T11:13:13.776Z,0
2023-01-08T11:14:13.784Z,0
2023-01-08T11:15:13.782Z,0
2023-01-08T11:16:13.804Z,0
2023-01-08T11:17:13.791Z,0
2023-01-08T11:18:13.782Z,0
2023-01-08T11:19:13.777Z,0
2023-01-08T11:20:13.809Z,0
2023-01-08T11:21:13.777Z,0
2023-01-08T11:22:13.776Z,0
2023-01-08T11:23:13.791Z,0
2023-01-08T11:24:13.792Z,0
2023-01-08T11:25:14.114Z,0
2023-01-08T11:26:13.785Z,0
2023-01-08T11:27:13.802Z,0
2023-01-08T11:28:13.785Z,0
2023-01-08T11:29:13.801Z,0
2023-01-08T11:30:13.792Z,0
2023-01-08T11:31:13.884Z,0
2023-01-08T11:32:13.793Z,0
2023-01-08T11:33:13.784Z,0
2023-01-08T11:34:13.790Z,0
2023-01-08T11:35:13.789Z,0
2023-01-08T11:36:14.941Z,0
2023-01-08T11:37:13.789Z,0
2023-01-08T11:38:13.830Z,0
2023-01-08T11:39:13.792Z,0
2023-01-08T11:40:13.829Z,0
2023-01-08T11:41:13.793Z,0
2023-01-08T11:42:13.789Z,0
2023-01-08T11:43:13.789Z,0
2023-01-08T11:44:13.789Z,0
2023-01-08T11:45:13.805Z,0
2023-01-08T11:46:13.799Z,0
2023-01-08T11:47:13.841Z,0
2023-01-08T11:48:14.641Z,0
2023-01-08T11:49:13.799Z,0
2023-01-08T11:50:13.805Z,0
2023-01-08T11:51:13.800Z,0
2023-01-08T11:52:13.827Z,0
2023-01-08T11:53:13.809Z,0
2023-01-08T11:54:14.412Z,0
2023-01-08T11:55:13.813Z,0
2023-01-08T11:56:13.791Z,0
2023-01-08T11:57:13.795Z,0
2023-01-08T11:58:13.801Z,0
2023-01-08T11:59:13.797Z,0
2023-01-08T12:00:14.446Z,0
2023-01-08T12:01:13.817Z,0
2023-01-08T12:02:13.819Z,0
2023-01-08T12:03:13.845Z,0
2023-01-08T12:04:13.799Z,0
2023-01-08T12:05:13.805Z,0
2023-01-08T12:06:13.797Z,0
2023-01-08T12:07:13.799Z,0
2023-01-08T12:08:13.839Z,0
2023-01-08T12:09:13.801Z,0
2023-01-08T12:10:13.797Z,0
2023-01-08T12:11:13.801Z,0
2023-01-08T12:12:15.089Z,0
2023-01-08T12:13:13.815Z,0
2023-01-08T12:14:13.809Z,0
2023-01-08T12:15:13.802Z,0
2023-01-08T12:16:13.842Z,0
2023-01-08T12:17:13.809Z,0
2023-01-08T12:18:13.819Z,0
2023-01-08T12:19:13.806Z,0
2023-01-08T12:20:13.808Z,0
2023-01-08T12:21:13.819Z,0
2023-01-08T12:22:13.819Z,0
2023-01-08T12:23:13.806Z,0
2023-01-08T12:24:13.850Z,0
2023-01-08T12:25:13.814Z,0
2023-01-08T12:26:13.806Z,0
2023-01-08T12:27:13.812Z,0
2023-01-08T12:28:13.817Z,0
2023-01-08T12:29:13.809Z,0
2023-01-08T12:30:13.819Z,0
2023-01-08T12:31:13.876Z,0
2023-01-08T12:32:13.923Z,0
2023-01-08T12:33:13.823Z,0
2023-01-08T12:34:13.827Z,0
2023-01-08T12:35:13.819Z,0
2023-01-08T12:36:13.821Z,0
2023-01-08T12:37:13.846Z,0
2023-01-08T12:38:13.833Z,0
2023-01-08T12:39:13.827Z,0
2023-01-08T12:40:13.856Z,0
2023-01-08T12:41:13.834Z,0
2023-01-08T12:42:13.832Z,0
2023-01-08T12:43:13.837Z,0
2023-01-08T12:44:13.860Z,0
2023-01-08T12:45:13.841Z,0
2023-01-08T12:46:13.935Z,0
2023-01-08T12:47:13.855Z,0
2023-01-08T12:48:13.840Z,0
2023-01-08T12:49:13.836Z,0
2023-01-08T12:50:13.864Z,0
2023-01-08T12:51:13.849Z,0
2023-01-08T12:52:13.831Z,0
2023-01-08T12:53:13.847Z,0
2023-01-08T12:54:13.840Z,0
2023-01-08T12:55:13.836Z,0
2023-01-08T12:56:13.879Z,0
2023-01-08T12:57:13.862Z,0
2023-01-08T12:58:13.882Z,0
2023-01-08T12:59:13.843Z,0
2023-01-08T13:00:13.860Z,0
2023-01-08T13:01:13.982Z,0
2023-01-08T13:02:13.936Z,0
2023-01-08T13:03:13.852Z,0
2023-01-08T13:04:13.856Z,0
2023-01-08T13:05:13.862Z,0
2023-01-08T13:06:13.857Z,0
2023-01-08T13:07:13.860Z,0
2023-01-08T13:08:13.860Z,0
2023-01-08T13:09:13.859Z,0
2023-01-08T13:10:13.870Z,0
2023-01-08T13:11:13.870Z,0
2023-01-08T13:12:13.875Z,0
2023-01-08T13:13:13.870Z,0
2023-01-08T13:14:13.875Z,0
2023-01-08T13:15:13.860Z,6.2
2023-01-08T13:16:13.894Z,9.1
2023-01-08T13:17:13.877Z,3.3000000000000003
2023-01-08T13:18:13.863Z,5.9
2023-01-08T13:19:13.865Z,4.9
2023-01-08T13:20:13.869Z,3.5
2023-01-08T13:21:13.875Z,2
2023-01-08T13:22:13.866Z,0
2023-01-08T13:23:13.878Z,0
2023-01-08T13:24:13.878Z,0
2023-01-08T13:25:13.888Z,0
2023-01-08T13:26:13.894Z,0
2023-01-08T13:27:13.885Z,0
2023-01-08T13:28:13.897Z,0
2023-01-08T13:29:13.881Z,0
2023-01-08T13:30:13.915Z,0
2023-01-08T13:31:13.884Z,0
2023-01-08T13:32:13.885Z,0
2023-01-08T13:33:13.885Z,0
2023-01-08T13:34:13.891Z,0
2023-01-08T13:35:13.877Z,0
2023-01-08T13:36:13.888Z,0
2023-01-08T13:37:26.858Z,0
2023-01-08T13:38:13.907Z,0
2023-01-08T13:39:13.899Z,0
2023-01-08T13:40:13.882Z,0
2023-01-08T13:41:13.905Z,0
2023-01-08T13:42:13.944Z,0
2023-01-08T13:43:13.898Z,0
2023-01-08T13:44:13.913Z,0
2023-01-08T13:45:13.890Z,0
2023-01-08T13:46:14.035Z,0
2023-01-08T13:47:13.897Z,0
2023-01-08T13:48:13.916Z,0
2023-01-08T13:49:13.891Z,0
2023-01-08T13:50:13.896Z,0
2023-01-08T13:51:13.900Z,0
2023-01-08T13:52:13.913Z,0
2023-01-08T13:53:13.907Z,0
2023-01-08T13:54:13.923Z,0
2023-01-08T13:55:13.928Z,0
2023-01-08T13:56:13.900Z,0
2023-01-08T13:57:13.909Z,0
2023-01-08T13:58:13.923Z,0
2023-01-08T13:59:13.912Z,0
2023-01-08T14:00:13.937Z,0
2023-01-08T14:01:13.995Z,0
2023-01-08T14:02:14.039Z,0
2023-01-08T14:03:13.923Z,0
2023-01-08T14:04:13.928Z,0
2023-01-08T14:05:13.946Z,0
2023-01-08T14:06:13.912Z,0
2023-01-08T14:07:13.966Z,0
2023-01-08T14:08:13.980Z,0
2023-01-08T14:09:13.928Z,0
2023-01-08T14:10:13.958Z,0
2023-01-08T14:11:13.926Z,0
2023-01-08T14:12:13.932Z,0
2023-01-08T14:13:13.930Z,0
2023-01-08T14:14:13.937Z,0
2023-01-08T14:15:13.944Z,0
2023-01-08T14:16:14.002Z,0
2023-01-08T14:17:13.924Z,0
2023-01-08T14:18:13.937Z,0
2023-01-08T14:19:13.946Z,0
2023-01-08T14:20:13.929Z,0
2023-01-08T14:21:13.943Z,0
2023-01-08T14:22:13.929Z,0
2023-01-08T14:23:13.938Z,0
2023-01-08T14:24:13.944Z,0
2023-01-08T14:25:13.971Z,0
2023-01-08T14:26:13.939Z,0
2023-01-08T14:27:13.948Z,0
2023-01-08T14:28:13.929Z,0
2023-01-08T14:29:13.933Z,0
2023-01-08T14:30:13.945Z,0
2023-01-08T14:31:13.937Z,0
2023-01-08T14:32:13.976Z,0
2023-01-08T14:33:13.948Z,0
2023-01-08T14:34:13.956Z,0
2023-01-08T14:35:13.947Z,0
2023-01-08T14:36:13.958Z,0